Terminal Aerodrome Forecast
Issued by NWS

Home | Current Version | Previous Version | Text Only | Print | Product List | Glossary On
Versions: 1 2 3 4 5 6 7 8 9 10 11 12
000
FTUS46 KHNX 160500
TAFFAT
TAF
KFAT 160520Z 1606/1706 31008KT P6SM SKC
     FM160800 32004KT P6SM SKC
     FM162200 31010KT P6SM SKC=

USA.gov is the U.S. government's official web portal to all federal, state and local government web resources and services.